createdAt,value
2023-03-11T00:02:01.129Z,40
2023-03-11T00:07:08.347Z,40
2023-03-11T00:12:20.356Z,40
2023-03-11T00:17:22.818Z,40
2023-03-11T00:22:30.046Z,40
2023-03-11T00:27:37.286Z,40
2023-03-11T00:32:44.618Z,40
2023-03-11T00:37:51.710Z,40
2023-03-11T00:42:58.970Z,40
2023-03-11T00:48:06.278Z,40
2023-03-11T00:53:13.376Z,40
2023-03-11T00:58:20.665Z,40
2023-03-11T01:03:27.884Z,40
2023-03-11T01:08:35.189Z,40
2023-03-11T01:13:42.347Z,40
2023-03-11T01:18:49.527Z,40
2023-03-11T01:23:56.761Z,40
2023-03-11T01:29:04.065Z,40
2023-03-11T01:34:11.239Z,40
2023-03-11T01:39:18.496Z,40
2023-03-11T01:44:25.708Z,40
2023-03-11T01:49:32.927Z,40
2023-03-11T01:54:40.177Z,40
2023-03-11T01:59:47.394Z,40
2023-03-11T02:04:54.585Z,40
2023-03-11T02:10:12.079Z,40
2023-03-11T02:15:19.357Z,40
2023-03-11T02:20:26.720Z,40
2023-03-11T02:25:33.927Z,40
2023-03-11T02:30:41.189Z,40
2023-03-11T02:35:48.448Z,40
2023-03-11T02:40:55.671Z,40
2023-03-11T02:46:03.002Z,40
2023-03-11T02:51:10.097Z,40
2023-03-11T02:56:17.309Z,40
2023-03-11T03:01:24.550Z,40
2023-03-11T03:06:31.765Z,40
2023-03-11T03:11:39.214Z,40
2023-03-11T03:16:46.305Z,40
2023-03-11T03:21:53.461Z,40
2023-03-11T03:27:00.695Z,40
2023-03-11T03:32:07.956Z,40
2023-03-11T03:37:15.321Z,40
2023-03-11T03:42:22.452Z,40
2023-03-11T03:47:29.610Z,40
2023-03-11T03:52:36.827Z,40
2023-03-11T03:57:44.041Z,40
2023-03-11T04:02:51.323Z,40
2023-03-11T04:07:58.511Z,40
2023-03-11T04:13:05.769Z,40
2023-03-11T04:18:13.124Z,40
2023-03-11T04:23:20.325Z,40
2023-03-11T04:28:27.476Z,40
2023-03-11T04:33:34.729Z,40
2023-03-11T04:38:41.875Z,40
2023-03-11T04:43:49.145Z,40
2023-03-11T04:48:56.394Z,40
2023-03-11T04:54:03.615Z,40
2023-03-11T04:59:10.813Z,40
2023-03-11T05:04:18.265Z,40
2023-03-11T05:09:25.273Z,40
2023-03-11T05:14:32.520Z,40
2023-03-11T05:19:39.743Z,40
2023-03-11T05:24:46.970Z,40
2023-03-11T05:29:54.157Z,40
2023-03-11T05:35:01.496Z,40
2023-03-11T05:40:08.620Z,40
2023-03-11T05:45:15.903Z,40
2023-03-11T05:50:23.200Z,40
2023-03-11T05:55:30.386Z,40
2023-03-11T06:00:37.558Z,40
2023-03-11T06:05:44.947Z,40
2023-03-11T06:10:52.021Z,40
2023-03-11T06:15:59.235Z,40
2023-03-11T06:21:06.518Z,40
2023-03-11T06:26:13.691Z,40
2023-03-11T06:31:20.985Z,40
2023-03-11T06:36:28.182Z,40
2023-03-11T06:41:35.414Z,40.5
2023-03-11T06:46:42.602Z,44
2023-03-11T06:51:49.988Z,46.5
2023-03-11T06:56:57.079Z,45
2023-03-11T07:02:04.282Z,45
2023-03-11T07:07:11.552Z,44.5
2023-03-11T07:12:19.070Z,40.5
2023-03-11T07:17:25.997Z,39.5
2023-03-11T07:22:33.270Z,40.5
2023-03-11T07:27:40.459Z,40.5
2023-03-11T07:32:47.748Z,40.5
2023-03-11T07:37:55.112Z,41
